Capitol Logistics 406




KBNA
Nashville International Airport
Nashville, Tennessee
KRFD
Chicago/Rockford International Airport
Rockford, Illinois

Activity Log

Date Flight Route Aircraft Duration
10/19/2021 CPX406 GDOGG3 FAPER FAPER PENTO OCTOE JOT BULLZ B752 1h 32m
09/04/2020 CPX406 HGGRD PXV J73 GUIDO JOT B738 1h 18m
11/14/2019 CPX406 N0406F350 HGGRD3 TINGS J29 PXV/N0420F340 PNT/N0330A160 V9 SMARS V128 RFD B738 1h 32m
09/25/2019 CPX406 N0451F410 HGGRD3 TINGS J29 PXV/N0453F400 PNT V9 SMARS V128 RFD B752 1h 15m
06/23/2019 CPX406 HGGRD PXV J73 GUIDO JOT B752 1h 07m
06/06/2019 CPX406 HGGRD PXV J73 GUIDO JOT B752 1h 32m
02/19/2019 CPX406 HGGRD PXV J73 GUIDO JOT B752 1h 16m

Route Details

Aircraft Information
Group: Narrowbodies
Types: B738,B752
Route Data
Demand: V
Distance: 382nm
Duration: 1h 00m
Recm'd Route: HGGRD PXV J73 GUIDO JOT
Origin Wx: KBNA 270553Z 22006KT 10SM SCT070 BKN080 18/12 A2985 RMK AO2 SLP102 T01830122 10239 20178 402500178 58006
Dest. Wx: KRFD 270554Z 00000KT 10SM -RA FEW009 SCT055 OVC095 17/15 A2976 RMK AO2 RAB08 SLP073 P0002 60036 T01670150 10189 20167 402560167 53001 $
Notes:

Financial History
Total Freight: 302,169lbs
Average Load: 43,167lbs/flt
Fuel Used: 62,074lbs
Avg. Fuel Used: 8,868lbs/flt
Fuel Expense: $49,850
Avg. Fuel Expense: $7,121
Avg. Fuel Cost: $0.79/lbs
Total Gross Income: $417,932
Pilot Pay: $1,233
Total Expenses: $47,159
Total Revenue: $319,167
Average Revenue: $59,704.51